sensor_id;sensor_type;location;lat;lon;timestamp;P1;durP1;ratioP1;P2;durP2;ratioP2
64633;SDS011;51043;52.406;9.690;2024-01-06T00:01:52;54.13;;;29.23;;
64633;SDS011;51043;52.406;9.690;2024-01-06T00:04:20;50.23;;;29.00;;
64633;SDS011;51043;52.406;9.690;2024-01-06T00:06:48;53.07;;;29.70;;
64633;SDS011;51043;52.406;9.690;2024-01-06T00:09:16;52.77;;;28.63;;
64633;SDS011;51043;52.406;9.690;2024-01-06T00:11:44;49.27;;;28.60;;
64633;SDS011;51043;52.406;9.690;2024-01-06T00:14:13;51.90;;;28.60;;
64633;SDS011;51043;52.406;9.690;2024-01-06T00:16:41;51.17;;;28.93;;
64633;SDS011;51043;52.406;9.690;2024-01-06T00:19:10;49.27;;;29.53;;
64633;SDS011;51043;52.406;9.690;2024-01-06T00:21:38;47.43;;;27.97;;
64633;SDS011;51043;52.406;9.690;2024-01-06T00:24:06;53.57;;;28.77;;
64633;SDS011;51043;52.406;9.690;2024-01-06T00:26:34;49.73;;;28.50;;
64633;SDS011;51043;52.406;9.690;2024-01-06T00:29:03;50.30;;;29.43;;
64633;SDS011;51043;52.406;9.690;2024-01-06T00:31:32;53.30;;;29.50;;
64633;SDS011;51043;52.406;9.690;2024-01-06T00:34:00;51.87;;;28.73;;
64633;SDS011;51043;52.406;9.690;2024-01-06T00:36:29;50.63;;;28.50;;
64633;SDS011;51043;52.406;9.690;2024-01-06T00:38:58;57.20;;;30.33;;
64633;SDS011;51043;52.406;9.690;2024-01-06T00:41:26;52.83;;;28.40;;
64633;SDS011;51043;52.406;9.690;2024-01-06T00:43:54;49.03;;;29.37;;
64633;SDS011;51043;52.406;9.690;2024-01-06T00:46:25;48.50;;;28.87;;
64633;SDS011;51043;52.406;9.690;2024-01-06T00:48:57;53.47;;;30.07;;
64633;SDS011;51043;52.406;9.690;2024-01-06T00:51:26;50.00;;;28.73;;
64633;SDS011;51043;52.406;9.690;2024-01-06T00:53:55;51.40;;;29.43;;
64633;SDS011;51043;52.406;9.690;2024-01-06T00:56:25;50.33;;;29.07;;
64633;SDS011;51043;52.406;9.690;2024-01-06T00:58:55;50.20;;;28.73;;
64633;SDS011;51043;52.406;9.690;2024-01-06T01:01:27;42.97;;;27.53;;
64633;SDS011;51043;52.406;9.690;2024-01-06T01:03:59;47.53;;;28.10;;
64633;SDS011;51043;52.406;9.690;2024-01-06T01:06:28;42.70;;;27.43;;
64633;SDS011;51043;52.406;9.690;2024-01-06T01:08:56;49.13;;;28.97;;
64633;SDS011;51043;52.406;9.690;2024-01-06T01:11:26;53.33;;;28.77;;
64633;SDS011;51043;52.406;9.690;2024-01-06T01:13:56;46.33;;;27.60;;
64633;SDS011;51043;52.406;9.690;2024-01-06T01:16:25;53.50;;;28.53;;
64633;SDS011;51043;52.406;9.690;2024-01-06T01:18:53;50.77;;;28.53;;
64633;SDS011;51043;52.406;9.690;2024-01-06T01:21:22;51.73;;;29.07;;
64633;SDS011;51043;52.406;9.690;2024-01-06T01:23:50;47.23;;;27.57;;
64633;SDS011;51043;52.406;9.690;2024-01-06T01:26:18;47.80;;;27.97;;
64633;SDS011;51043;52.406;9.690;2024-01-06T01:28:54;46.77;;;28.17;;
64633;SDS011;51043;52.406;9.690;2024-01-06T01:31:22;44.47;;;26.93;;
64633;SDS011;51043;52.406;9.690;2024-01-06T01:33:50;49.27;;;27.23;;
64633;SDS011;51043;52.406;9.690;2024-01-06T01:36:18;44.77;;;26.93;;
64633;SDS011;51043;52.406;9.690;2024-01-06T01:38:47;47.47;;;27.97;;
64633;SDS011;51043;52.406;9.690;2024-01-06T01:41:15;48.67;;;29.47;;
64633;SDS011;51043;52.406;9.690;2024-01-06T01:43:45;48.27;;;26.93;;
64633;SDS011;51043;52.406;9.690;2024-01-06T01:46:13;43.53;;;26.93;;
64633;SDS011;51043;52.406;9.690;2024-01-06T01:48:41;48.23;;;27.13;;
64633;SDS011;51043;52.406;9.690;2024-01-06T01:51:09;50.97;;;27.97;;
64633;SDS011;51043;52.406;9.690;2024-01-06T01:53:38;47.47;;;26.80;;
64633;SDS011;51043;52.406;9.690;2024-01-06T01:56:07;48.20;;;27.03;;
64633;SDS011;51043;52.406;9.690;2024-01-06T01:58:35;45.40;;;27.10;;
64633;SDS011;51043;52.406;9.690;2024-01-06T02:01:04;46.83;;;27.00;;
64633;SDS011;51043;52.406;9.690;2024-01-06T02:03:32;47.97;;;28.27;;
64633;SDS011;51043;52.406;9.690;2024-01-06T02:06:01;46.27;;;27.17;;
64633;SDS011;51043;52.406;9.690;2024-01-06T02:08:29;46.00;;;26.57;;
64633;SDS011;51043;52.406;9.690;2024-01-06T02:10:57;46.53;;;26.70;;
64633;SDS011;51043;52.406;9.690;2024-01-06T02:13:33;41.77;;;25.27;;
64633;SDS011;51043;52.406;9.690;2024-01-06T02:16:02;45.20;;;26.83;;
64633;SDS011;51043;52.406;9.690;2024-01-06T02:18:32;44.37;;;26.63;;
64633;SDS011;51043;52.406;9.690;2024-01-06T02:21:01;46.27;;;25.53;;
64633;SDS011;51043;52.406;9.690;2024-01-06T02:23:35;51.50;;;27.27;;
64633;SDS011;51043;52.406;9.690;2024-01-06T02:26:04;39.37;;;25.47;;
64633;SDS011;51043;52.406;9.690;2024-01-06T02:28:32;46.50;;;25.70;;
64633;SDS011;51043;52.406;9.690;2024-01-06T02:31:03;47.00;;;27.03;;
64633;SDS011;51043;52.406;9.690;2024-01-06T02:33:31;46.70;;;26.30;;
64633;SDS011;51043;52.406;9.690;2024-01-06T02:35:59;48.83;;;26.23;;
64633;SDS011;51043;52.406;9.690;2024-01-06T02:38:29;47.50;;;27.00;;
64633;SDS011;51043;52.406;9.690;2024-01-06T02:41:00;44.03;;;26.03;;
64633;SDS011;51043;52.406;9.690;2024-01-06T02:43:31;38.30;;;25.70;;
64633;SDS011;51043;52.406;9.690;2024-01-06T02:46:01;47.40;;;26.03;;
64633;SDS011;51043;52.406;9.690;2024-01-06T02:48:34;49.40;;;25.70;;
64633;SDS011;51043;52.406;9.690;2024-01-06T02:51:05;43.03;;;25.60;;
64633;SDS011;51043;52.406;9.690;2024-01-06T02:53:33;43.87;;;26.53;;
64633;SDS011;51043;52.406;9.690;2024-01-06T02:56:04;50.67;;;27.53;;
64633;SDS011;51043;52.406;9.690;2024-01-06T02:58:36;46.90;;;26.50;;
64633;SDS011;51043;52.406;9.690;2024-01-06T03:01:04;49.27;;;27.03;;
64633;SDS011;51043;52.406;9.690;2024-01-06T03:03:33;49.83;;;27.47;;
64633;SDS011;51043;52.406;9.690;2024-01-06T03:06:01;48.17;;;26.30;;
64633;SDS011;51043;52.406;9.690;2024-01-06T03:08:30;44.57;;;26.63;;
64633;SDS011;51043;52.406;9.690;2024-01-06T03:10:58;39.70;;;25.60;;
64633;SDS011;51043;52.406;9.690;2024-01-06T03:13:27;40.47;;;25.13;;
64633;SDS011;51043;52.406;9.690;2024-01-06T03:15:55;43.07;;;26.00;;
64633;SDS011;51043;52.406;9.690;2024-01-06T03:18:24;42.73;;;23.83;;
64633;SDS011;51043;52.406;9.690;2024-01-06T03:20:52;43.77;;;24.17;;
64633;SDS011;51043;52.406;9.690;2024-01-06T03:23:20;45.70;;;24.37;;
64633;SDS011;51043;52.406;9.690;2024-01-06T03:25:48;38.37;;;24.30;;
64633;SDS011;51043;52.406;9.690;2024-01-06T03:28:16;43.73;;;23.90;;
64633;SDS011;51043;52.406;9.690;2024-01-06T03:30:48;46.20;;;25.33;;
64633;SDS011;51043;52.406;9.690;2024-01-06T03:33:16;45.77;;;25.40;;
64633;SDS011;51043;52.406;9.690;2024-01-06T03:35:45;45.57;;;25.93;;
64633;SDS011;51043;52.406;9.690;2024-01-06T03:38:15;49.73;;;24.97;;
64633;SDS011;51043;52.406;9.690;2024-01-06T03:40:43;40.77;;;23.93;;
64633;SDS011;51043;52.406;9.690;2024-01-06T03:43:11;47.23;;;27.10;;
64633;SDS011;51043;52.406;9.690;2024-01-06T03:45:39;48.30;;;25.20;;
64633;SDS011;51043;52.406;9.690;2024-01-06T03:48:08;41.93;;;24.90;;
64633;SDS011;51043;52.406;9.690;2024-01-06T03:50:36;49.40;;;25.47;;
64633;SDS011;51043;52.406;9.690;2024-01-06T03:53:04;44.77;;;26.03;;
64633;SDS011;51043;52.406;9.690;2024-01-06T03:55:36;38.83;;;24.43;;
64633;SDS011;51043;52.406;9.690;2024-01-06T03:58:04;45.90;;;25.90;;
64633;SDS011;51043;52.406;9.690;2024-01-06T04:00:32;43.90;;;25.07;;
64633;SDS011;51043;52.406;9.690;2024-01-06T04:03:01;42.87;;;24.63;;
64633;SDS011;51043;52.406;9.690;2024-01-06T04:05:34;41.27;;;24.90;;
64633;SDS011;51043;52.406;9.690;2024-01-06T04:08:04;38.67;;;23.77;;
64633;SDS011;51043;52.406;9.690;2024-01-06T04:10:35;43.27;;;25.73;;
64633;SDS011;51043;52.406;9.690;2024-01-06T04:13:04;49.30;;;26.90;;
64633;SDS011;51043;52.406;9.690;2024-01-06T04:15:32;43.50;;;24.53;;
64633;SDS011;51043;52.406;9.690;2024-01-06T04:18:01;45.60;;;25.50;;
64633;SDS011;51043;52.406;9.690;2024-01-06T04:20:30;45.43;;;25.00;;
64633;SDS011;51043;52.406;9.690;2024-01-06T04:22:59;43.07;;;23.53;;
64633;SDS011;51043;52.406;9.690;2024-01-06T04:25:27;46.20;;;26.10;;
64633;SDS011;51043;52.406;9.690;2024-01-06T04:27:55;44.53;;;25.70;;
64633;SDS011;51043;52.406;9.690;2024-01-06T04:30:24;42.23;;;25.30;;
64633;SDS011;51043;52.406;9.690;2024-01-06T04:32:52;42.80;;;24.83;;
64633;SDS011;51043;52.406;9.690;2024-01-06T04:35:20;44.07;;;25.07;;
64633;SDS011;51043;52.406;9.690;2024-01-06T04:37:49;45.23;;;26.17;;
64633;SDS011;51043;52.406;9.690;2024-01-06T04:40:18;41.90;;;25.20;;
64633;SDS011;51043;52.406;9.690;2024-01-06T04:42:46;42.47;;;24.37;;
64633;SDS011;51043;52.406;9.690;2024-01-06T04:45:15;44.77;;;27.00;;
64633;SDS011;51043;52.406;9.690;2024-01-06T04:47:45;44.53;;;24.63;;
64633;SDS011;51043;52.406;9.690;2024-01-06T04:50:13;45.93;;;26.50;;
64633;SDS011;51043;52.406;9.690;2024-01-06T04:52:41;46.13;;;26.77;;
64633;SDS011;51043;52.406;9.690;2024-01-06T04:55:10;42.97;;;25.87;;
64633;SDS011;51043;52.406;9.690;2024-01-06T04:57:41;47.77;;;27.97;;
64633;SDS011;51043;52.406;9.690;2024-01-06T05:00:13;53.80;;;26.93;;
64633;SDS011;51043;52.406;9.690;2024-01-06T05:02:42;47.10;;;26.00;;
64633;SDS011;51043;52.406;9.690;2024-01-06T05:05:13;42.10;;;25.80;;
64633;SDS011;51043;52.406;9.690;2024-01-06T05:07:41;43.83;;;25.63;;
64633;SDS011;51043;52.406;9.690;2024-01-06T05:10:09;49.50;;;27.17;;
64633;SDS011;51043;52.406;9.690;2024-01-06T05:12:37;44.30;;;25.97;;
64633;SDS011;51043;52.406;9.690;2024-01-06T05:15:09;49.60;;;27.67;;
64633;SDS011;51043;52.406;9.690;2024-01-06T05:17:37;50.43;;;26.43;;
64633;SDS011;51043;52.406;9.690;2024-01-06T05:20:05;45.53;;;25.60;;
64633;SDS011;51043;52.406;9.690;2024-01-06T05:22:35;53.50;;;26.53;;
64633;SDS011;51043;52.406;9.690;2024-01-06T05:25:03;49.37;;;26.03;;
64633;SDS011;51043;52.406;9.690;2024-01-06T05:27:32;44.53;;;26.77;;
64633;SDS011;51043;52.406;9.690;2024-01-06T05:30:01;47.87;;;25.77;;
64633;SDS011;51043;52.406;9.690;2024-01-06T05:32:30;49.23;;;26.17;;
64633;SDS011;51043;52.406;9.690;2024-01-06T05:34:58;44.80;;;25.40;;
64633;SDS011;51043;52.406;9.690;2024-01-06T05:37:27;47.43;;;24.93;;
64633;SDS011;51043;52.406;9.690;2024-01-06T05:39:55;46.20;;;25.93;;
64633;SDS011;51043;52.406;9.690;2024-01-06T05:42:27;47.97;;;25.63;;
64633;SDS011;51043;52.406;9.690;2024-01-06T05:44:55;46.03;;;26.83;;
64633;SDS011;51043;52.406;9.690;2024-01-06T05:47:23;50.37;;;26.80;;
64633;SDS011;51043;52.406;9.690;2024-01-06T05:49:53;49.17;;;26.13;;
64633;SDS011;51043;52.406;9.690;2024-01-06T05:52:21;54.07;;;27.67;;
64633;SDS011;51043;52.406;9.690;2024-01-06T05:54:49;54.73;;;27.10;;
64633;SDS011;51043;52.406;9.690;2024-01-06T05:57:17;55.30;;;27.53;;
64633;SDS011;51043;52.406;9.690;2024-01-06T05:59:46;49.53;;;27.13;;
64633;SDS011;51043;52.406;9.690;2024-01-06T06:02:14;48.57;;;27.33;;
64633;SDS011;51043;52.406;9.690;2024-01-06T06:04:42;62.13;;;30.23;;
64633;SDS011;51043;52.406;9.690;2024-01-06T06:07:11;66.13;;;31.90;;
64633;SDS011;51043;52.406;9.690;2024-01-06T06:09:39;62.67;;;31.00;;
64633;SDS011;51043;52.406;9.690;2024-01-06T06:12:08;59.20;;;30.77;;
64633;SDS011;51043;52.406;9.690;2024-01-06T06:14:37;63.40;;;31.77;;
64633;SDS011;51043;52.406;9.690;2024-01-06T06:17:05;65.73;;;31.00;;
64633;SDS011;51043;52.406;9.690;2024-01-06T06:19:35;65.50;;;30.50;;
64633;SDS011;51043;52.406;9.690;2024-01-06T06:22:03;63.90;;;31.37;;
64633;SDS011;51043;52.406;9.690;2024-01-06T06:24:33;65.23;;;31.43;;
64633;SDS011;51043;52.406;9.690;2024-01-06T06:27:01;66.73;;;32.00;;
64633;SDS011;51043;52.406;9.690;2024-01-06T06:29:29;69.87;;;31.67;;
64633;SDS011;51043;52.406;9.690;2024-01-06T06:31:58;69.80;;;32.10;;
64633;SDS011;51043;52.406;9.690;2024-01-06T06:34:26;67.00;;;32.07;;
64633;SDS011;51043;52.406;9.690;2024-01-06T06:36:54;67.37;;;31.03;;
64633;SDS011;51043;52.406;9.690;2024-01-06T06:39:22;71.90;;;33.10;;
64633;SDS011;51043;52.406;9.690;2024-01-06T06:41:50;68.30;;;31.90;;
64633;SDS011;51043;52.406;9.690;2024-01-06T06:44:19;67.77;;;32.00;;
64633;SDS011;51043;52.406;9.690;2024-01-06T06:46:47;63.67;;;31.23;;
64633;SDS011;51043;52.406;9.690;2024-01-06T06:49:18;65.53;;;31.13;;
64633;SDS011;51043;52.406;9.690;2024-01-06T06:51:46;62.03;;;30.17;;
64633;SDS011;51043;52.406;9.690;2024-01-06T06:54:18;65.13;;;31.40;;
64633;SDS011;51043;52.406;9.690;2024-01-06T06:56:46;67.87;;;31.77;;
64633;SDS011;51043;52.406;9.690;2024-01-06T06:59:16;76.60;;;32.83;;
64633;SDS011;51043;52.406;9.690;2024-01-06T07:01:44;74.83;;;34.43;;
64633;SDS011;51043;52.406;9.690;2024-01-06T07:04:12;74.30;;;34.13;;
64633;SDS011;51043;52.406;9.690;2024-01-06T07:06:40;75.13;;;33.40;;
64633;SDS011;51043;52.406;9.690;2024-01-06T07:09:08;76.00;;;33.80;;
64633;SDS011;51043;52.406;9.690;2024-01-06T07:11:36;74.17;;;32.83;;
64633;SDS011;51043;52.406;9.690;2024-01-06T07:14:04;73.37;;;32.03;;
64633;SDS011;51043;52.406;9.690;2024-01-06T07:16:36;73.97;;;32.03;;
64633;SDS011;51043;52.406;9.690;2024-01-06T07:19:05;79.93;;;32.83;;
64633;SDS011;51043;52.406;9.690;2024-01-06T07:21:35;74.87;;;33.33;;
64633;SDS011;51043;52.406;9.690;2024-01-06T07:24:05;73.73;;;33.07;;
64633;SDS011;51043;52.406;9.690;2024-01-06T07:26:34;67.47;;;32.20;;
64633;SDS011;51043;52.406;9.690;2024-01-06T07:29:03;71.60;;;32.77;;
64633;SDS011;51043;52.406;9.690;2024-01-06T07:31:31;73.00;;;32.83;;
64633;SDS011;51043;52.406;9.690;2024-01-06T07:34:01;69.80;;;32.57;;
64633;SDS011;51043;52.406;9.690;2024-01-06T07:36:29;73.13;;;31.97;;
64633;SDS011;51043;52.406;9.690;2024-01-06T07:38:57;72.23;;;31.17;;
64633;SDS011;51043;52.406;9.690;2024-01-06T07:41:25;72.37;;;31.00;;
64633;SDS011;51043;52.406;9.690;2024-01-06T07:43:53;64.07;;;30.83;;
64633;SDS011;51043;52.406;9.690;2024-01-06T07:46:21;77.47;;;32.90;;
64633;SDS011;51043;52.406;9.690;2024-01-06T07:48:49;67.83;;;31.90;;
64633;SDS011;51043;52.406;9.690;2024-01-06T07:51:19;68.63;;;30.57;;
64633;SDS011;51043;52.406;9.690;2024-01-06T07:53:47;76.57;;;31.83;;
64633;SDS011;51043;52.406;9.690;2024-01-06T07:56:15;65.90;;;30.40;;
64633;SDS011;51043;52.406;9.690;2024-01-06T07:58:43;64.33;;;30.23;;
64633;SDS011;51043;52.406;9.690;2024-01-06T08:01:11;67.77;;;31.30;;
64633;SDS011;51043;52.406;9.690;2024-01-06T08:03:39;64.27;;;29.47;;
64633;SDS011;51043;52.406;9.690;2024-01-06T08:06:07;58.90;;;29.50;;
64633;SDS011;51043;52.406;9.690;2024-01-06T08:08:40;61.13;;;27.80;;
64633;SDS011;51043;52.406;9.690;2024-01-06T08:11:09;62.40;;;28.53;;
64633;SDS011;51043;52.406;9.690;2024-01-06T08:13:38;54.97;;;26.60;;
64633;SDS011;51043;52.406;9.690;2024-01-06T08:16:09;61.53;;;27.73;;
64633;SDS011;51043;52.406;9.690;2024-01-06T08:18:37;54.57;;;27.57;;
64633;SDS011;51043;52.406;9.690;2024-01-06T08:21:05;57.23;;;28.10;;
64633;SDS011;51043;52.406;9.690;2024-01-06T08:23:34;53.13;;;27.13;;
64633;SDS011;51043;52.406;9.690;2024-01-06T08:26:04;51.90;;;27.80;;
64633;SDS011;51043;52.406;9.690;2024-01-06T08:28:34;54.03;;;26.07;;
64633;SDS011;51043;52.406;9.690;2024-01-06T08:31:03;49.80;;;26.20;;
64633;SDS011;51043;52.406;9.690;2024-01-06T08:33:32;51.53;;;26.00;;
64633;SDS011;51043;52.406;9.690;2024-01-06T08:36:00;50.47;;;25.13;;
64633;SDS011;51043;52.406;9.690;2024-01-06T08:38:28;49.33;;;24.50;;
64633;SDS011;51043;52.406;9.690;2024-01-06T08:40:56;54.07;;;24.87;;
64633;SDS011;51043;52.406;9.690;2024-01-06T08:43:25;52.03;;;26.00;;
64633;SDS011;51043;52.406;9.690;2024-01-06T08:45:53;49.13;;;24.83;;
64633;SDS011;51043;52.406;9.690;2024-01-06T08:48:22;43.37;;;23.53;;
64633;SDS011;51043;52.406;9.690;2024-01-06T08:50:50;45.57;;;24.47;;
64633;SDS011;51043;52.406;9.690;2024-01-06T08:53:18;39.43;;;21.80;;
64633;SDS011;51043;52.406;9.690;2024-01-06T08:55:46;39.97;;;22.53;;
64633;SDS011;51043;52.406;9.690;2024-01-06T08:58:14;41.50;;;23.67;;
64633;SDS011;51043;52.406;9.690;2024-01-06T09:00:45;40.03;;;22.77;;
64633;SDS011;51043;52.406;9.690;2024-01-06T09:03:13;43.77;;;22.23;;
64633;SDS011;51043;52.406;9.690;2024-01-06T09:05:41;37.67;;;21.33;;
64633;SDS011;51043;52.406;9.690;2024-01-06T09:08:10;35.77;;;20.90;;
64633;SDS011;51043;52.406;9.690;2024-01-06T09:10:38;40.07;;;21.63;;
64633;SDS011;51043;52.406;9.690;2024-01-06T09:13:06;34.53;;;21.30;;
64633;SDS011;51043;52.406;9.690;2024-01-06T09:15:38;34.83;;;19.33;;
64633;SDS011;51043;52.406;9.690;2024-01-06T09:18:13;37.87;;;20.80;;
64633;SDS011;51043;52.406;9.690;2024-01-06T09:20:41;35.77;;;19.70;;
64633;SDS011;51043;52.406;9.690;2024-01-06T09:23:10;32.73;;;19.70;;
64633;SDS011;51043;52.406;9.690;2024-01-06T09:25:38;40.03;;;20.27;;
64633;SDS011;51043;52.406;9.690;2024-01-06T09:28:07;31.37;;;18.40;;
64633;SDS011;51043;52.406;9.690;2024-01-06T09:30:37;35.80;;;20.70;;
64633;SDS011;51043;52.406;9.690;2024-01-06T09:33:05;34.40;;;20.53;;
64633;SDS011;51043;52.406;9.690;2024-01-06T09:35:36;37.23;;;20.37;;
64633;SDS011;51043;52.406;9.690;2024-01-06T09:38:04;38.87;;;21.50;;
64633;SDS011;51043;52.406;9.690;2024-01-06T09:40:38;32.80;;;20.50;;
64633;SDS011;51043;52.406;9.690;2024-01-06T09:43:09;37.10;;;21.20;;
64633;SDS011;51043;52.406;9.690;2024-01-06T09:45:38;33.83;;;20.37;;
64633;SDS011;51043;52.406;9.690;2024-01-06T09:48:09;32.70;;;19.47;;
64633;SDS011;51043;52.406;9.690;2024-01-06T09:50:42;32.43;;;19.23;;
64633;SDS011;51043;52.406;9.690;2024-01-06T09:53:11;36.53;;;21.03;;
64633;SDS011;51043;52.406;9.690;2024-01-06T09:55:39;34.60;;;20.00;;
64633;SDS011;51043;52.406;9.690;2024-01-06T09:58:07;35.97;;;21.10;;
64633;SDS011;51043;52.406;9.690;2024-01-06T10:00:37;33.17;;;19.97;;
64633;SDS011;51043;52.406;9.690;2024-01-06T10:03:05;34.07;;;20.13;;
64633;SDS011;51043;52.406;9.690;2024-01-06T10:05:35;31.30;;;19.37;;
64633;SDS011;51043;52.406;9.690;2024-01-06T10:08:05;33.93;;;19.07;;
64633;SDS011;51043;52.406;9.690;2024-01-06T10:10:33;31.93;;;18.50;;
64633;SDS011;51043;52.406;9.690;2024-01-06T10:13:01;34.20;;;18.67;;
64633;SDS011;51043;52.406;9.690;2024-01-06T10:15:30;32.57;;;18.87;;
64633;SDS011;51043;52.406;9.690;2024-01-06T10:17:58;27.30;;;15.83;;
64633;SDS011;51043;52.406;9.690;2024-01-06T10:20:29;31.50;;;19.20;;
64633;SDS011;51043;52.406;9.690;2024-01-06T10:22:57;37.17;;;19.90;;
64633;SDS011;51043;52.406;9.690;2024-01-06T10:25:34;32.17;;;18.80;;
64633;SDS011;51043;52.406;9.690;2024-01-06T10:28:03;30.67;;;18.20;;
64633;SDS011;51043;52.406;9.690;2024-01-06T10:30:35;30.23;;;17.87;;
64633;SDS011;51043;52.406;9.690;2024-01-06T10:33:25;33.83;;;18.43;;
64633;SDS011;51043;52.406;9.690;2024-01-06T10:35:54;29.17;;;17.57;;
64633;SDS011;51043;52.406;9.690;2024-01-06T10:38:24;28.10;;;16.43;;
64633;SDS011;51043;52.406;9.690;2024-01-06T10:40:57;28.37;;;16.60;;
64633;SDS011;51043;52.406;9.690;2024-01-06T10:43:26;25.90;;;16.17;;
64633;SDS011;51043;52.406;9.690;2024-01-06T10:45:55;28.60;;;16.17;;
64633;SDS011;51043;52.406;9.690;2024-01-06T10:48:25;26.77;;;17.00;;
64633;SDS011;51043;52.406;9.690;2024-01-06T10:50:53;26.20;;;16.67;;
64633;SDS011;51043;52.406;9.690;2024-01-06T10:53:24;29.93;;;17.67;;
64633;SDS011;51043;52.406;9.690;2024-01-06T10:55:53;23.33;;;14.87;;
64633;SDS011;51043;52.406;9.690;2024-01-06T10:58:22;25.87;;;15.97;;
64633;SDS011;51043;52.406;9.690;2024-01-06T11:00:50;26.80;;;16.50;;
64633;SDS011;51043;52.406;9.690;2024-01-06T11:03:18;26.33;;;16.73;;
64633;SDS011;51043;52.406;9.690;2024-01-06T11:05:49;28.43;;;16.13;;
64633;SDS011;51043;52.406;9.690;2024-01-06T11:08:18;28.20;;;16.73;;
64633;SDS011;51043;52.406;9.690;2024-01-06T11:10:50;30.50;;;16.73;;
64633;SDS011;51043;52.406;9.690;2024-01-06T11:13:21;28.17;;;16.90;;
64633;SDS011;51043;52.406;9.690;2024-01-06T11:15:50;27.37;;;16.43;;
64633;SDS011;51043;52.406;9.690;2024-01-06T11:18:32;27.17;;;17.27;;
64633;SDS011;51043;52.406;9.690;2024-01-06T11:21:15;28.70;;;16.60;;
64633;SDS011;51043;52.406;9.690;2024-01-06T11:23:45;26.33;;;15.50;;
64633;SDS011;51043;52.406;9.690;2024-01-06T11:26:17;27.23;;;16.23;;
64633;SDS011;51043;52.406;9.690;2024-01-06T11:28:45;26.57;;;16.87;;
64633;SDS011;51043;52.406;9.690;2024-01-06T11:31:18;29.13;;;16.87;;
64633;SDS011;51043;52.406;9.690;2024-01-06T11:33:46;28.47;;;17.70;;
64633;SDS011;51043;52.406;9.690;2024-01-06T11:36:18;26.53;;;15.90;;
64633;SDS011;51043;52.406;9.690;2024-01-06T11:38:52;28.03;;;17.23;;
64633;SDS011;51043;52.406;9.690;2024-01-06T11:44:17;33.57;;;18.70;;
64633;SDS011;51043;52.406;9.690;2024-01-06T11:46:46;33.17;;;19.07;;
64633;SDS011;51043;52.406;9.690;2024-01-06T11:49:16;36.57;;;20.97;;
64633;SDS011;51043;52.406;9.690;2024-01-06T11:51:47;34.60;;;20.67;;
64633;SDS011;51043;52.406;9.690;2024-01-06T11:54:15;35.07;;;21.40;;
64633;SDS011;51043;52.406;9.690;2024-01-06T11:56:44;36.33;;;19.17;;
64633;SDS011;51043;52.406;9.690;2024-01-06T11:59:13;34.60;;;20.17;;
64633;SDS011;51043;52.406;9.690;2024-01-06T12:01:44;32.87;;;18.70;;
64633;SDS011;51043;52.406;9.690;2024-01-06T12:04:13;37.00;;;19.07;;
64633;SDS011;51043;52.406;9.690;2024-01-06T12:06:44;35.93;;;19.83;;
64633;SDS011;51043;52.406;9.690;2024-01-06T12:09:12;38.37;;;20.57;;
64633;SDS011;51043;52.406;9.690;2024-01-06T12:11:44;58.03;;;36.63;;
64633;SDS011;51043;52.406;9.690;2024-01-06T12:14:14;39.97;;;23.10;;
64633;SDS011;51043;52.406;9.690;2024-01-06T12:16:43;39.37;;;21.30;;
64633;SDS011;51043;52.406;9.690;2024-01-06T12:19:11;41.37;;;22.67;;
64633;SDS011;51043;52.406;9.690;2024-01-06T12:21:39;38.43;;;22.03;;
64633;SDS011;51043;52.406;9.690;2024-01-06T12:24:12;40.87;;;22.53;;
64633;SDS011;51043;52.406;9.690;2024-01-06T12:26:43;38.77;;;21.57;;
64633;SDS011;51043;52.406;9.690;2024-01-06T12:29:12;38.70;;;20.57;;
64633;SDS011;51043;52.406;9.690;2024-01-06T12:31:41;37.53;;;21.90;;
64633;SDS011;51043;52.406;9.690;2024-01-06T12:34:11;39.40;;;21.97;;
64633;SDS011;51043;52.406;9.690;2024-01-06T12:36:41;37.17;;;19.97;;
64633;SDS011;51043;52.406;9.690;2024-01-06T12:39:11;36.60;;;20.10;;
64633;SDS011;51043;52.406;9.690;2024-01-06T12:41:45;34.90;;;19.90;;
64633;SDS011;51043;52.406;9.690;2024-01-06T12:44:14;36.57;;;20.70;;
64633;SDS011;51043;52.406;9.690;2024-01-06T12:46:45;43.23;;;20.77;;
64633;SDS011;51043;52.406;9.690;2024-01-06T12:49:14;36.60;;;20.37;;
64633;SDS011;51043;52.406;9.690;2024-01-06T12:51:44;35.93;;;19.73;;
64633;SDS011;51043;52.406;9.690;2024-01-06T12:54:13;44.57;;;22.03;;
64633;SDS011;51043;52.406;9.690;2024-01-06T12:56:42;38.13;;;20.50;;
64633;SDS011;51043;52.406;9.690;2024-01-06T12:59:10;40.53;;;20.77;;
64633;SDS011;51043;52.406;9.690;2024-01-06T13:01:38;35.47;;;20.53;;
64633;SDS011;51043;52.406;9.690;2024-01-06T13:04:08;40.40;;;21.20;;
64633;SDS011;51043;52.406;9.690;2024-01-06T13:06:36;40.93;;;21.67;;
64633;SDS011;51043;52.406;9.690;2024-01-06T13:09:04;41.70;;;22.10;;
64633;SDS011;51043;52.406;9.690;2024-01-06T13:11:34;42.77;;;21.87;;
64633;SDS011;51043;52.406;9.690;2024-01-06T13:14:03;36.57;;;20.43;;
64633;SDS011;51043;52.406;9.690;2024-01-06T13:16:31;37.67;;;21.17;;
64633;SDS011;51043;52.406;9.690;2024-01-06T13:18:59;41.50;;;21.00;;
64633;SDS011;51043;52.406;9.690;2024-01-06T13:21:29;35.73;;;19.87;;
64633;SDS011;51043;52.406;9.690;2024-01-06T13:23:58;37.87;;;20.17;;
64633;SDS011;51043;52.406;9.690;2024-01-06T13:26:28;47.57;;;20.63;;
64633;SDS011;51043;52.406;9.690;2024-01-06T13:28:57;37.50;;;19.70;;
64633;SDS011;51043;52.406;9.690;2024-01-06T13:31:25;36.77;;;19.90;;
64633;SDS011;51043;52.406;9.690;2024-01-06T13:33:55;37.90;;;19.60;;
64633;SDS011;51043;52.406;9.690;2024-01-06T13:36:23;41.27;;;20.00;;
64633;SDS011;51043;52.406;9.690;2024-01-06T13:38:52;37.63;;;19.20;;
64633;SDS011;51043;52.406;9.690;2024-01-06T13:41:21;33.57;;;18.53;;
64633;SDS011;51043;52.406;9.690;2024-01-06T13:43:49;36.30;;;18.43;;
64633;SDS011;51043;52.406;9.690;2024-01-06T13:46:20;47.03;;;18.27;;
64633;SDS011;51043;52.406;9.690;2024-01-06T13:48:48;36.07;;;18.43;;
64633;SDS011;51043;52.406;9.690;2024-01-06T13:51:16;40.70;;;19.90;;
64633;SDS011;51043;52.406;9.690;2024-01-06T13:53:47;37.93;;;19.43;;
64633;SDS011;51043;52.406;9.690;2024-01-06T13:56:17;41.00;;;20.00;;
64633;SDS011;51043;52.406;9.690;2024-01-06T13:58:45;36.90;;;19.57;;
64633;SDS011;51043;52.406;9.690;2024-01-06T14:01:14;40.87;;;20.97;;
64633;SDS011;51043;52.406;9.690;2024-01-06T14:03:45;41.83;;;21.13;;
64633;SDS011;51043;52.406;9.690;2024-01-06T14:06:13;37.90;;;20.43;;
64633;SDS011;51043;52.406;9.690;2024-01-06T14:08:41;44.97;;;24.47;;
64633;SDS011;51043;52.406;9.690;2024-01-06T14:11:10;46.43;;;23.90;;
64633;SDS011;51043;52.406;9.690;2024-01-06T14:13:39;46.77;;;23.63;;
64633;SDS011;51043;52.406;9.690;2024-01-06T14:16:07;61.00;;;32.47;;
64633;SDS011;51043;52.406;9.690;2024-01-06T14:18:35;48.20;;;23.47;;
64633;SDS011;51043;52.406;9.690;2024-01-06T14:21:04;45.67;;;21.83;;
64633;SDS011;51043;52.406;9.690;2024-01-06T14:23:33;41.70;;;22.47;;
64633;SDS011;51043;52.406;9.690;2024-01-06T14:26:01;55.57;;;31.33;;
64633;SDS011;51043;52.406;9.690;2024-01-06T14:28:29;48.57;;;25.50;;
64633;SDS011;51043;52.406;9.690;2024-01-06T14:30:58;41.20;;;22.90;;
64633;SDS011;51043;52.406;9.690;2024-01-06T14:33:26;38.87;;;20.87;;
64633;SDS011;51043;52.406;9.690;2024-01-06T14:35:55;40.37;;;20.50;;